DAL1145 KDTW-KMYR
Flight info
| Callsign | DAL1145 |
|---|---|
| Flight time | 1h 25m |
| Altitude | 37000 |
| Route | LIDDS4 GRIVY EKN RDU FAY |
| Aircraft | A320/M-SDE3FGHIRWY/LB1 |
Departure
| Time | 2026-04-21 16:43 |
|---|---|
| Airport | Detroit Metropolitan Wayne County Airport (KDTW) |
Arrival
| Time | 2026-04-21 18:08 |
|---|---|
| Airport | Myrtle Beach International Airport (KMYR) |
| Time | Latitude | Longitude | Altitude | Speed | Heading |
|---|---|---|---|---|---|
| 2026-04-21 16:13 | 42.21365 | -83.35473 | 649 ft | 0 kts | 119° |
| 2026-04-21 16:32 | 42.21371 | -83.35487 | 649 ft | 4 kts | 119° |
| 2026-04-21 16:32 | 42.21382 | -83.35514 | 652 ft | 2 kts | 119° |
| 2026-04-21 16:32 | 42.21393 | -83.35545 | 653 ft | 4 kts | 103° |
| 2026-04-21 16:32 | 42.21393 | -83.35579 | 653 ft | 4 kts | 55° |
| 2026-04-21 16:33 | 42.21375 | -83.35598 | 651 ft | 4 kts | 28° |
| 2026-04-21 16:33 | 42.21370 | -83.35602 | 652 ft | 0 kts | 28° |
| 2026-04-21 16:35 | 42.21374 | -83.35598 | 651 ft | 3 kts | 28° |
| 2026-04-21 16:36 | 42.21406 | -83.35575 | 653 ft | 5 kts | 28° |
| 2026-04-21 16:36 | 42.21457 | -83.35537 | 649 ft | 18 kts | 28° |
| 2026-04-21 16:36 | 42.21546 | -83.35423 | 649 ft | 17 kts | 82° |
| 2026-04-21 16:36 | 42.21550 | -83.35271 | 649 ft | 16 kts | 89° |
| 2026-04-21 16:37 | 42.21552 | -83.35119 | 649 ft | 19 kts | 87° |
| 2026-04-21 16:37 | 42.21624 | -83.34996 | 652 ft | 16 kts | 43° |
| 2026-04-21 16:37 | 42.21698 | -83.34903 | 651 ft | 13 kts | 43° |
| 2026-04-21 16:37 | 42.21757 | -83.34826 | 651 ft | 11 kts | 45° |
| 2026-04-21 16:38 | 42.21812 | -83.34752 | 650 ft | 11 kts | 45° |
| 2026-04-21 16:38 | 42.21834 | -83.34665 | 650 ft | 9 kts | 87° |
| 2026-04-21 16:38 | 42.21837 | -83.34566 | 650 ft | 13 kts | 88° |
| 2026-04-21 16:38 | 42.21885 | -83.34481 | 650 ft | 12 kts | 28° |
| 2026-04-21 16:39 | 42.21952 | -83.34431 | 650 ft | 10 kts | 29° |
| 2026-04-21 16:39 | 42.22012 | -83.34387 | 649 ft | 9 kts | 29° |
| 2026-04-21 16:39 | 42.22073 | -83.34341 | 649 ft | 16 kts | 28° |
| 2026-04-21 16:39 | 42.22185 | -83.34257 | 649 ft | 18 kts | 28° |
| 2026-04-21 16:40 | 42.22290 | -83.34180 | 649 ft | 16 kts | 28° |
| 2026-04-21 16:40 | 42.22384 | -83.34111 | 649 ft | 15 kts | 29° |
| 2026-04-21 16:40 | 42.22466 | -83.34048 | 651 ft | 13 kts | 29° |
| 2026-04-21 16:40 | 42.22542 | -83.33991 | 650 ft | 14 kts | 28° |
| 2026-04-21 16:41 | 42.22620 | -83.33934 | 649 ft | 12 kts | 29° |
| 2026-04-21 16:41 | 42.22688 | -83.33884 | 649 ft | 11 kts | 27° |
| 2026-04-21 16:41 | 42.22749 | -83.33843 | 649 ft | 9 kts | 32° |
| 2026-04-21 16:41 | 42.22754 | -83.33782 | 650 ft | 6 kts | 119° |
| 2026-04-21 16:42 | 42.22738 | -83.33744 | 651 ft | 3 kts | 120° |
| 2026-04-21 16:42 | 42.22724 | -83.33713 | 651 ft | 6 kts | 128° |
| 2026-04-21 16:42 | 42.22690 | -83.33719 | 651 ft | 6 kts | 209° |
| 2026-04-21 16:42 | 42.22599 | -83.33785 | 651 ft | 42 kts | 208° |
| 2026-04-21 16:43 | 42.22144 | -83.34122 | 651 ft | 107 kts | 209° |
| 2026-04-21 16:43 | 42.21325 | -83.34711 | 686 ft | 154 kts | 206° |
| 2026-04-21 16:43 | 42.20372 | -83.35368 | 1254 ft | 154 kts | 202° |
| 2026-04-21 16:43 | 42.19335 | -83.35750 | 1913 ft | 156 kts | 191° |
| 2026-04-21 16:44 | 42.18239 | -83.35866 | 2610 ft | 164 kts | 188° |
| 2026-04-21 16:44 | 42.17038 | -83.35964 | 3013 ft | 181 kts | 188° |
| 2026-04-21 16:44 | 42.15688 | -83.35943 | 3364 ft | 207 kts | 182° |
| 2026-04-21 16:44 | 42.14163 | -83.35888 | 3726 ft | 231 kts | 182° |
| 2026-04-21 16:45 | 42.12469 | -83.35830 | 4132 ft | 255 kts | 182° |
| 2026-04-21 16:45 | 42.10671 | -83.35762 | 4893 ft | 265 kts | 181° |
| 2026-04-21 16:45 | 42.08798 | -83.35686 | 5678 ft | 272 kts | 181° |
| 2026-04-21 16:45 | 42.06891 | -83.35534 | 6537 ft | 279 kts | 172° |
| 2026-04-21 16:46 | 42.05076 | -83.34621 | 6894 ft | 290 kts | 148° |
| 2026-04-21 16:46 | 42.03647 | -83.32713 | 6989 ft | 291 kts | 121° |
| 2026-04-21 16:46 | 42.02923 | -83.30196 | 7000 ft | 289 kts | 98° |
| 2026-04-21 16:46 | 42.02565 | -83.27531 | 7002 ft | 290 kts | 98° |
| 2026-04-21 16:47 | 42.02191 | -83.24870 | 6995 ft | 290 kts | 99° |
| 2026-04-21 16:47 | 42.01806 | -83.22210 | 7019 ft | 289 kts | 99° |
| 2026-04-21 16:47 | 42.01474 | -83.19568 | 7533 ft | 289 kts | 91° |
| 2026-04-21 16:47 | 42.01552 | -83.16866 | 8086 ft | 290 kts | 77° |
| 2026-04-21 16:48 | 42.01920 | -83.14240 | 8629 ft | 293 kts | 75° |
| 2026-04-21 16:48 | 42.02298 | -83.11527 | 9198 ft | 297 kts | 75° |
| 2026-04-21 16:48 | 42.02675 | -83.08781 | 9772 ft | 301 kts | 75° |
| 2026-04-21 16:48 | 42.03052 | -83.05982 | 10332 ft | 308 kts | 75° |
| 2026-04-21 16:49 | 42.03436 | -83.03136 | 10771 ft | 324 kts | 75° |
| 2026-04-21 16:49 | 42.03856 | -83.00046 | 10978 ft | 348 kts | 75° |
| 2026-04-21 16:49 | 42.04294 | -82.96818 | 11273 ft | 365 kts | 75° |
| 2026-04-21 16:49 | 42.04749 | -82.93425 | 11886 ft | 371 kts | 75° |
| 2026-04-21 16:50 | 42.05202 | -82.89984 | 12580 ft | 376 kts | 74° |
| 2026-04-21 16:50 | 42.05658 | -82.86501 | 13278 ft | 380 kts | 73° |
| 2026-04-21 16:50 | 42.06111 | -82.83037 | 13977 ft | 383 kts | 73° |
| 2026-04-21 16:50 | 42.06576 | -82.79488 | 14585 ft | 386 kts | 73° |
| 2026-04-21 16:51 | 42.06991 | -82.75895 | 14951 ft | 393 kts | 78° |
| 2026-04-21 16:51 | 42.06971 | -82.72184 | 15057 ft | 402 kts | 90° |
| 2026-04-21 16:51 | 42.06403 | -82.68451 | 15634 ft | 411 kts | 98° |
| 2026-04-21 16:51 | 42.05695 | -82.64715 | 16273 ft | 414 kts | 98° |
| 2026-04-21 16:52 | 42.04994 | -82.60943 | 16881 ft | 417 kts | 97° |
| 2026-04-21 16:52 | 42.04294 | -82.57144 | 17466 ft | 421 kts | 97° |
| 2026-04-21 16:52 | 42.03585 | -82.53306 | 18060 ft | 424 kts | 97° |
| 2026-04-21 16:52 | 42.02868 | -82.49439 | 18607 ft | 428 kts | 96° |
| 2026-04-21 16:53 | 42.02152 | -82.45537 | 19108 ft | 432 kts | 96° |
| 2026-04-21 16:53 | 42.01436 | -82.41600 | 19622 ft | 435 kts | 96° |
| 2026-04-21 16:53 | 42.00717 | -82.37636 | 20148 ft | 438 kts | 96° |
| 2026-04-21 16:53 | 41.99991 | -82.33647 | 20656 ft | 441 kts | 96° |
| 2026-04-21 16:54 | 41.99255 | -82.29633 | 21156 ft | 444 kts | 96° |
| 2026-04-21 16:54 | 41.98511 | -82.25596 | 21640 ft | 447 kts | 96° |
| 2026-04-21 16:54 | 41.97758 | -82.21532 | 22134 ft | 449 kts | 95° |
| 2026-04-21 16:54 | 41.97001 | -82.17448 | 22583 ft | 452 kts | 95° |
| 2026-04-21 16:55 | 41.96008 | -82.13383 | 23034 ft | 465 kts | 105° |
| 2026-04-21 16:55 | 41.94469 | -82.09485 | 23468 ft | 479 kts | 117° |
| 2026-04-21 16:55 | 41.92401 | -82.05916 | 23854 ft | 491 kts | 128° |
| 2026-04-21 16:55 | 41.89843 | -82.02821 | 24179 ft | 499 kts | 139° |
| 2026-04-21 16:56 | 41.87091 | -81.99953 | 24515 ft | 502 kts | 139° |
| 2026-04-21 16:56 | 41.84331 | -81.97063 | 24857 ft | 504 kts | 139° |
| 2026-04-21 16:56 | 41.81565 | -81.94156 | 25185 ft | 507 kts | 139° |
| 2026-04-21 16:56 | 41.78786 | -81.91234 | 25522 ft | 509 kts | 139° |
| 2026-04-21 16:57 | 41.75997 | -81.88304 | 25860 ft | 510 kts | 139° |
| 2026-04-21 16:57 | 41.73194 | -81.85366 | 26205 ft | 512 kts | 139° |
| 2026-04-21 16:57 | 41.70382 | -81.82423 | 26514 ft | 514 kts | 139° |
| 2026-04-21 16:57 | 41.67569 | -81.79538 | 26820 ft | 517 kts | 140° |
| 2026-04-21 16:58 | 41.64639 | -81.76630 | 27091 ft | 519 kts | 142° |
| 2026-04-21 16:58 | 41.61752 | -81.73834 | 27403 ft | 521 kts | 142° |
| 2026-04-21 16:58 | 41.58803 | -81.71008 | 27678 ft | 523 kts | 142° |
| 2026-04-21 16:58 | 41.55845 | -81.68174 | 27955 ft | 524 kts | 142° |
| 2026-04-21 16:59 | 41.52882 | -81.65318 | 28230 ft | 526 kts | 142° |
| 2026-04-21 16:59 | 41.49920 | -81.62442 | 28523 ft | 527 kts | 142° |
| 2026-04-21 16:59 | 41.46954 | -81.59550 | 28777 ft | 529 kts | 142° |
| 2026-04-21 16:59 | 41.43973 | -81.56637 | 29026 ft | 531 kts | 142° |
| 2026-04-21 17:00 | 41.40989 | -81.53724 | 29296 ft | 532 kts | 142° |
| 2026-04-21 17:00 | 41.38005 | -81.50822 | 29711 ft | 531 kts | 143° |
| 2026-04-21 17:00 | 41.36034 | -81.48912 | 29946 ft | 530 kts | 143° |
| 2026-04-21 17:00 | 41.32044 | -81.45051 | 30404 ft | 529 kts | 143° |
| 2026-04-21 17:01 | 41.29068 | -81.42172 | 30700 ft | 528 kts | 143° |
| 2026-04-21 17:01 | 41.26099 | -81.39303 | 31019 ft | 526 kts | 143° |
| 2026-04-21 17:01 | 41.23139 | -81.36447 | 31318 ft | 525 kts | 143° |
| 2026-04-21 17:01 | 41.20188 | -81.33601 | 31612 ft | 524 kts | 143° |
| 2026-04-21 17:02 | 41.17237 | -81.30762 | 31906 ft | 523 kts | 144° |
| 2026-04-21 17:02 | 41.14294 | -81.27939 | 32222 ft | 522 kts | 144° |
| 2026-04-21 17:02 | 41.11353 | -81.25126 | 32507 ft | 521 kts | 144° |
| 2026-04-21 17:02 | 41.08343 | -81.22462 | 32796 ft | 519 kts | 152° |
| 2026-04-21 17:03 | 41.05120 | -81.20330 | 33090 ft | 516 kts | 160° |
| 2026-04-21 17:03 | 41.01799 | -81.18542 | 33397 ft | 515 kts | 160° |
| 2026-04-21 17:03 | 40.98482 | -81.16767 | 33687 ft | 514 kts | 161° |
| 2026-04-21 17:03 | 40.95169 | -81.15003 | 33955 ft | 513 kts | 161° |
| 2026-04-21 17:04 | 40.91857 | -81.13244 | 34242 ft | 512 kts | 161° |
| 2026-04-21 17:04 | 40.88548 | -81.11492 | 34480 ft | 511 kts | 161° |
| 2026-04-21 17:04 | 40.85250 | -81.09746 | 34731 ft | 510 kts | 161° |
| 2026-04-21 17:04 | 40.82000 | -81.08024 | 34970 ft | 509 kts | 161° |
| 2026-04-21 17:05 | 40.78720 | -81.06286 | 35206 ft | 509 kts | 161° |
| 2026-04-21 17:05 | 40.75436 | -81.04544 | 35420 ft | 508 kts | 161° |
| 2026-04-21 17:05 | 40.72162 | -81.02806 | 35652 ft | 507 kts | 161° |
| 2026-04-21 17:05 | 40.68894 | -81.01077 | 35868 ft | 506 kts | 161° |
| 2026-04-21 17:06 | 40.65627 | -80.99353 | 36064 ft | 505 kts | 162° |
| 2026-04-21 17:06 | 40.62371 | -80.97638 | 36240 ft | 504 kts | 162° |
| 2026-04-21 17:06 | 40.59116 | -80.95927 | 36436 ft | 504 kts | 162° |
| 2026-04-21 17:06 | 40.55862 | -80.94218 | 36615 ft | 503 kts | 162° |
| 2026-04-21 17:07 | 40.53709 | -80.93085 | 36736 ft | 503 kts | 162° |
| 2026-04-21 17:07 | 40.49368 | -80.90800 | 36946 ft | 502 kts | 162° |
| 2026-04-21 17:07 | 40.46130 | -80.89101 | 37118 ft | 501 kts | 162° |
| 2026-04-21 17:07 | 40.42891 | -80.87404 | 37259 ft | 501 kts | 162° |
| 2026-04-21 17:08 | 40.39651 | -80.85706 | 37287 ft | 503 kts | 162° |
| 2026-04-21 17:08 | 40.33153 | -80.82309 | 37280 ft | 503 kts | 162° |
| 2026-04-21 17:09 | 40.23401 | -80.77226 | 37253 ft | 502 kts | 162° |
| 2026-04-21 17:09 | 40.16913 | -80.73847 | 37264 ft | 502 kts | 162° |
| 2026-04-21 17:10 | 40.10426 | -80.70486 | 37251 ft | 502 kts | 162° |
| 2026-04-21 17:10 | 40.03973 | -80.67153 | 37271 ft | 502 kts | 162° |
| 2026-04-21 17:11 | 39.97477 | -80.63801 | 37270 ft | 502 kts | 162° |
| 2026-04-21 17:11 | 39.90988 | -80.60446 | 37293 ft | 502 kts | 162° |
| 2026-04-21 17:12 | 39.84496 | -80.57097 | 37292 ft | 502 kts | 162° |
| 2026-04-21 17:12 | 39.78008 | -80.53765 | 37308 ft | 501 kts | 162° |
| 2026-04-21 17:13 | 39.72573 | -80.50981 | 37325 ft | 501 kts | 163° |
| 2026-04-21 17:13 | 39.66089 | -80.47667 | 37308 ft | 501 kts | 163° |
| 2026-04-21 17:14 | 39.59608 | -80.44357 | 37313 ft | 500 kts | 163° |
| 2026-04-21 17:14 | 39.53130 | -80.41052 | 37303 ft | 500 kts | 163° |
| 2026-04-21 17:15 | 39.46697 | -80.37775 | 37307 ft | 500 kts | 163° |
| 2026-04-21 17:15 | 39.40228 | -80.34494 | 37299 ft | 499 kts | 163° |
| 2026-04-21 17:16 | 39.33758 | -80.31213 | 37304 ft | 499 kts | 163° |
| 2026-04-21 17:16 | 39.27295 | -80.27935 | 37304 ft | 499 kts | 163° |
| 2026-04-21 17:17 | 39.20887 | -80.24702 | 37300 ft | 499 kts | 163° |
| 2026-04-21 17:17 | 39.14423 | -80.21451 | 37301 ft | 499 kts | 163° |
| 2026-04-21 17:18 | 39.08023 | -80.18237 | 37312 ft | 498 kts | 163° |
| 2026-04-21 17:18 | 39.01628 | -80.15028 | 37320 ft | 498 kts | 163° |
| 2026-04-21 17:19 | 38.95236 | -80.11820 | 37325 ft | 498 kts | 163° |
| 2026-04-21 17:19 | 38.88781 | -80.08627 | 37316 ft | 497 kts | 164° |
| 2026-04-21 17:20 | 38.82301 | -80.05685 | 37314 ft | 495 kts | 166° |
| 2026-04-21 17:20 | 38.75782 | -80.02850 | 37317 ft | 495 kts | 166° |
| 2026-04-21 17:21 | 38.69266 | -79.99965 | 37329 ft | 495 kts | 165° |
| 2026-04-21 17:21 | 38.62768 | -79.97037 | 37335 ft | 495 kts | 165° |
| 2026-04-21 17:22 | 38.56274 | -79.94111 | 37351 ft | 495 kts | 165° |
| 2026-04-21 17:22 | 38.49782 | -79.91210 | 37351 ft | 494 kts | 166° |
| 2026-04-21 17:23 | 38.43285 | -79.88316 | 37354 ft | 494 kts | 165° |
| 2026-04-21 17:23 | 38.36795 | -79.85435 | 37354 ft | 494 kts | 166° |
| 2026-04-21 17:24 | 38.30297 | -79.82556 | 37359 ft | 494 kts | 166° |
| 2026-04-21 17:24 | 38.23800 | -79.79672 | 37347 ft | 494 kts | 166° |
| 2026-04-21 17:25 | 38.20550 | -79.78227 | 36870 ft | 494 kts | 164° |
| 2026-04-21 17:25 | 38.17316 | -79.76793 | 37068 ft | 491 kts | 164° |
| 2026-04-21 17:25 | 38.14096 | -79.75368 | 37296 ft | 489 kts | 164° |
| 2026-04-21 17:25 | 38.10873 | -79.73946 | 37354 ft | 491 kts | 164° |
| 2026-04-21 17:26 | 38.04403 | -79.71103 | 37351 ft | 493 kts | 164° |
| 2026-04-21 17:26 | 37.97925 | -79.68255 | 37352 ft | 493 kts | 164° |
| 2026-04-21 17:27 | 37.91484 | -79.65414 | 37359 ft | 493 kts | 164° |
| 2026-04-21 17:27 | 37.88194 | -79.63970 | 36947 ft | 494 kts | 165° |
| 2026-04-21 17:27 | 37.84989 | -79.62572 | 36921 ft | 494 kts | 165° |
| 2026-04-21 17:28 | 37.78455 | -79.59721 | 36925 ft | 494 kts | 164° |
| 2026-04-21 17:28 | 37.71963 | -79.56875 | 36995 ft | 494 kts | 165° |
| 2026-04-21 17:29 | 37.65461 | -79.54042 | 37107 ft | 495 kts | 165° |
| 2026-04-21 17:29 | 37.58945 | -79.51217 | 37224 ft | 495 kts | 165° |
| 2026-04-21 17:30 | 37.52471 | -79.48406 | 37403 ft | 496 kts | 165° |
| 2026-04-21 17:30 | 37.45953 | -79.45577 | 37401 ft | 496 kts | 165° |
| 2026-04-21 17:31 | 37.39418 | -79.42750 | 37408 ft | 497 kts | 165° |
| 2026-04-21 17:31 | 37.32871 | -79.39927 | 37403 ft | 498 kts | 165° |
| 2026-04-21 17:32 | 37.26320 | -79.37102 | 37405 ft | 498 kts | 165° |
| 2026-04-21 17:32 | 37.19758 | -79.34276 | 37405 ft | 499 kts | 165° |
| 2026-04-21 17:33 | 37.13183 | -79.31450 | 37406 ft | 500 kts | 165° |
| 2026-04-21 17:33 | 37.06600 | -79.28626 | 37412 ft | 500 kts | 165° |
| 2026-04-21 17:34 | 37.00008 | -79.25804 | 37418 ft | 501 kts | 165° |
| 2026-04-21 17:34 | 36.93409 | -79.22979 | 37422 ft | 502 kts | 165° |
| 2026-04-21 17:35 | 36.86795 | -79.20165 | 37425 ft | 502 kts | 165° |
| 2026-04-21 17:35 | 36.80179 | -79.17356 | 37426 ft | 503 kts | 165° |
| 2026-04-21 17:36 | 36.73546 | -79.14536 | 37428 ft | 503 kts | 165° |
| 2026-04-21 17:36 | 36.66916 | -79.11727 | 37429 ft | 504 kts | 165° |
| 2026-04-21 17:37 | 36.60332 | -79.08938 | 37426 ft | 504 kts | 166° |
| 2026-04-21 17:37 | 36.53677 | -79.06130 | 37431 ft | 505 kts | 166° |
| 2026-04-21 17:38 | 36.47018 | -79.03321 | 37437 ft | 505 kts | 166° |
| 2026-04-21 17:38 | 36.40353 | -79.00514 | 37441 ft | 506 kts | 166° |
| 2026-04-21 17:39 | 36.33730 | -78.97729 | 37441 ft | 506 kts | 166° |
| 2026-04-21 17:39 | 36.27058 | -78.94929 | 37439 ft | 506 kts | 166° |
| 2026-04-21 17:40 | 36.20373 | -78.92137 | 37440 ft | 507 kts | 166° |
| 2026-04-21 17:40 | 36.13692 | -78.89337 | 37435 ft | 507 kts | 166° |
| 2026-04-21 17:41 | 36.07005 | -78.86541 | 37429 ft | 508 kts | 166° |
| 2026-04-21 17:41 | 36.00295 | -78.83757 | 37437 ft | 508 kts | 166° |
| 2026-04-21 17:42 | 35.93590 | -78.80974 | 37436 ft | 509 kts | 166° |
| 2026-04-21 17:42 | 35.86784 | -78.78950 | 37442 ft | 498 kts | 181° |
| 2026-04-21 17:43 | 35.79965 | -78.79099 | 37438 ft | 487 kts | 192° |
| 2026-04-21 17:43 | 35.73213 | -78.79822 | 37437 ft | 487 kts | 192° |
| 2026-04-21 17:44 | 35.66452 | -78.80517 | 37425 ft | 488 kts | 192° |
| 2026-04-21 17:44 | 35.59791 | -78.81197 | 37436 ft | 488 kts | 192° |
| 2026-04-21 17:45 | 35.53087 | -78.81886 | 37429 ft | 488 kts | 192° |
| 2026-04-21 17:45 | 35.46317 | -78.82586 | 37428 ft | 488 kts | 192° |
| 2026-04-21 17:46 | 35.39617 | -78.83277 | 37431 ft | 487 kts | 192° |
| 2026-04-21 17:46 | 35.32918 | -78.83972 | 37428 ft | 487 kts | 192° |
| 2026-04-21 17:47 | 35.29596 | -78.84318 | 36893 ft | 489 kts | 192° |
| 2026-04-21 17:47 | 35.26160 | -78.84685 | 35678 ft | 500 kts | 192° |
| 2026-04-21 17:47 | 35.22749 | -78.85042 | 34796 ft | 501 kts | 192° |
| 2026-04-21 17:47 | 35.19318 | -78.85393 | 33724 ft | 505 kts | 192° |
| 2026-04-21 17:48 | 35.16996 | -78.85628 | 32996 ft | 507 kts | 191° |
| 2026-04-21 17:48 | 35.12278 | -78.86108 | 31548 ft | 510 kts | 191° |
| 2026-04-21 17:48 | 35.08728 | -78.86473 | 30364 ft | 513 kts | 191° |
| 2026-04-21 17:48 | 35.05215 | -78.86836 | 29042 ft | 517 kts | 190° |
| 2026-04-21 17:49 | 35.01652 | -78.87195 | 28374 ft | 507 kts | 190° |
| 2026-04-21 17:49 | 34.98138 | -78.87352 | 27651 ft | 505 kts | 182° |
| 2026-04-21 17:49 | 34.94640 | -78.86998 | 26940 ft | 503 kts | 178° |
| 2026-04-21 17:49 | 34.91183 | -78.86542 | 26234 ft | 497 kts | 178° |
| 2026-04-21 17:50 | 34.87817 | -78.86101 | 25554 ft | 493 kts | 178° |
| 2026-04-21 17:50 | 34.84421 | -78.85658 | 24868 ft | 489 kts | 177° |
| 2026-04-21 17:50 | 34.81114 | -78.85233 | 24201 ft | 485 kts | 178° |
| 2026-04-21 17:50 | 34.77764 | -78.85171 | 22918 ft | 478 kts | 189° |
| 2026-04-21 17:51 | 34.74532 | -78.85604 | 21643 ft | 472 kts | 190° |
| 2026-04-21 17:51 | 34.71326 | -78.86044 | 20959 ft | 455 kts | 190° |
| 2026-04-21 17:51 | 34.68269 | -78.86468 | 20328 ft | 446 kts | 190° |
| 2026-04-21 17:51 | 34.65165 | -78.86914 | 19691 ft | 441 kts | 190° |
| 2026-04-21 17:52 | 34.62182 | -78.87349 | 19083 ft | 438 kts | 190° |
| 2026-04-21 17:52 | 34.59145 | -78.87783 | 18449 ft | 440 kts | 189° |
| 2026-04-21 17:52 | 34.56193 | -78.88184 | 17778 ft | 440 kts | 189° |
| 2026-04-21 17:52 | 34.53147 | -78.88589 | 17100 ft | 440 kts | 189° |
| 2026-04-21 17:53 | 34.50112 | -78.88991 | 16438 ft | 439 kts | 189° |
| 2026-04-21 17:53 | 34.47074 | -78.89397 | 15787 ft | 438 kts | 189° |
| 2026-04-21 17:53 | 34.44050 | -78.89806 | 15155 ft | 437 kts | 188° |
| 2026-04-21 17:53 | 34.41041 | -78.90214 | 14528 ft | 431 kts | 188° |
| 2026-04-21 17:54 | 34.38128 | -78.90610 | 13969 ft | 411 kts | 188° |
| 2026-04-21 17:54 | 34.35352 | -78.90990 | 13444 ft | 392 kts | 188° |
| 2026-04-21 17:54 | 34.32738 | -78.91347 | 12937 ft | 376 kts | 188° |
| 2026-04-21 17:54 | 34.30192 | -78.91694 | 12430 ft | 362 kts | 188° |
| 2026-04-21 17:55 | 34.27731 | -78.92032 | 11928 ft | 350 kts | 188° |
| 2026-04-21 17:55 | 34.25352 | -78.92359 | 11435 ft | 339 kts | 188° |
| 2026-04-21 17:55 | 34.23040 | -78.92676 | 10949 ft | 329 kts | 188° |
| 2026-04-21 17:55 | 34.20794 | -78.92981 | 10516 ft | 320 kts | 187° |
| 2026-04-21 17:56 | 34.18618 | -78.93277 | 10109 ft | 310 kts | 188° |
| 2026-04-21 17:56 | 34.16506 | -78.93567 | 9686 ft | 302 kts | 188° |
| 2026-04-21 17:56 | 34.14431 | -78.93852 | 9270 ft | 298 kts | 187° |
| 2026-04-21 17:56 | 34.12398 | -78.94130 | 8861 ft | 296 kts | 188° |
| 2026-04-21 17:57 | 34.10350 | -78.94411 | 8458 ft | 297 kts | 187° |
| 2026-04-21 17:57 | 34.08291 | -78.94692 | 8047 ft | 297 kts | 187° |
| 2026-04-21 17:57 | 34.06942 | -78.94877 | 7781 ft | 291 kts | 187° |
| 2026-04-21 17:57 | 34.04342 | -78.95227 | 7241 ft | 279 kts | 187° |
| 2026-04-21 17:58 | 34.03077 | -78.95397 | 6986 ft | 273 kts | 188° |
| 2026-04-21 17:58 | 34.01216 | -78.95649 | 6578 ft | 266 kts | 187° |
| 2026-04-21 17:58 | 33.99402 | -78.95897 | 6162 ft | 258 kts | 187° |
| 2026-04-21 17:58 | 33.97650 | -78.96135 | 5891 ft | 255 kts | 187° |
| 2026-04-21 17:59 | 33.95820 | -78.96384 | 5615 ft | 271 kts | 187° |
| 2026-04-21 17:59 | 33.93955 | -78.96635 | 5316 ft | 268 kts | 187° |
| 2026-04-21 17:59 | 33.92119 | -78.96882 | 5028 ft | 263 kts | 186° |
| 2026-04-21 17:59 | 33.90313 | -78.97129 | 4743 ft | 259 kts | 186° |
| 2026-04-21 18:00 | 33.88569 | -78.97368 | 4535 ft | 255 kts | 185° |
| 2026-04-21 18:00 | 33.86825 | -78.97548 | 4306 ft | 250 kts | 175° |
| 2026-04-21 18:00 | 33.85131 | -78.97198 | 4093 ft | 245 kts | 165° |
| 2026-04-21 18:00 | 33.83476 | -78.97018 | 3891 ft | 238 kts | 190° |
| 2026-04-21 18:01 | 33.81983 | -78.97832 | 3689 ft | 238 kts | 218° |
| 2026-04-21 18:01 | 33.80968 | -78.99362 | 3474 ft | 234 kts | 246° |
| 2026-04-21 18:01 | 33.80639 | -79.01240 | 3270 ft | 230 kts | 273° |
| 2026-04-21 18:01 | 33.81040 | -79.03082 | 3080 ft | 231 kts | 300° |
| 2026-04-21 18:02 | 33.82096 | -79.04539 | 2842 ft | 232 kts | 328° |
| 2026-04-21 18:02 | 33.83542 | -79.05261 | 2702 ft | 225 kts | 354° |
| 2026-04-21 18:02 | 33.85068 | -79.05176 | 2542 ft | 216 kts | 19° |
| 2026-04-21 18:02 | 33.86353 | -79.04383 | 2417 ft | 211 kts | 43° |
| 2026-04-21 18:03 | 33.87260 | -79.03016 | 2303 ft | 208 kts | 65° |
| 2026-04-21 18:03 | 33.87620 | -79.01392 | 2170 ft | 195 kts | 88° |
| 2026-04-21 18:03 | 33.87446 | -78.99835 | 2075 ft | 187 kts | 107° |
| 2026-04-21 18:03 | 33.86835 | -78.98505 | 1981 ft | 182 kts | 128° |
| 2026-04-21 18:04 | 33.85890 | -78.97541 | 1973 ft | 182 kts | 148° |
| 2026-04-21 18:04 | 33.84702 | -78.97015 | 1973 ft | 184 kts | 166° |
| 2026-04-21 18:04 | 33.83431 | -78.96700 | 2021 ft | 180 kts | 166° |
| 2026-04-21 18:04 | 33.82247 | -78.96405 | 2006 ft | 168 kts | 164° |
| 2026-04-21 18:05 | 33.81140 | -78.96129 | 2013 ft | 161 kts | 166° |
| 2026-04-21 18:05 | 33.80054 | -78.95856 | 1941 ft | 153 kts | 165° |
| 2026-04-21 18:05 | 33.79033 | -78.95600 | 2048 ft | 151 kts | 164° |
| 2026-04-21 18:05 | 33.77943 | -78.95324 | 1812 ft | 167 kts | 163° |
| 2026-04-21 18:06 | 33.76809 | -78.95043 | 1629 ft | 163 kts | 165° |
| 2026-04-21 18:06 | 33.75713 | -78.94782 | 1378 ft | 160 kts | 165° |
| 2026-04-21 18:06 | 33.74635 | -78.94521 | 1170 ft | 151 kts | 163° |
| 2026-04-21 18:06 | 33.73636 | -78.94268 | 913 ft | 142 kts | 162° |
| 2026-04-21 18:07 | 33.72684 | -78.94008 | 734 ft | 140 kts | 162° |
| 2026-04-21 18:07 | 33.71740 | -78.93779 | 566 ft | 138 kts | 163° |
| 2026-04-21 18:07 | 33.70805 | -78.93535 | 366 ft | 136 kts | 165° |
| 2026-04-21 18:07 | 33.69881 | -78.93318 | 205 ft | 133 kts | 162° |
| 2026-04-21 18:08 | 33.68976 | -78.93082 | 47 ft | 132 kts | 163° |
| 2026-04-21 18:08 | 33.68191 | -78.92884 | 30 ft | 79 kts | 169° |
| 2026-04-21 18:08 | 33.67862 | -78.92800 | 31 ft | 42 kts | 170° |
| 2026-04-21 18:08 | 33.67639 | -78.92752 | 31 ft | 0 kts | 166° |
| 2026-04-21 18:09 | 33.67615 | -78.92718 | 29 ft | 23 kts | 117° |
| 2026-04-21 18:09 | 33.67488 | -78.92581 | 31 ft | 25 kts | 141° |
| 2026-04-21 18:09 | 33.67364 | -78.92448 | 31 ft | 22 kts | 128° |
| 2026-04-21 18:09 | 33.67399 | -78.92344 | 31 ft | 14 kts | 8° |
| 2026-04-21 18:10 | 33.67491 | -78.92361 | 31 ft | 13 kts | 345° |
| 2026-04-21 18:10 | 33.67573 | -78.92385 | 31 ft | 11 kts | 347° |
| 2026-04-21 18:10 | 33.67646 | -78.92401 | 31 ft | 10 kts | 350° |
| 2026-04-21 18:10 | 33.67710 | -78.92424 | 31 ft | 9 kts | 335° |
| 2026-04-21 18:11 | 33.67764 | -78.92455 | 31 ft | 11 kts | 335° |
| 2026-04-21 18:11 | 33.67836 | -78.92492 | 31 ft | 11 kts | 337° |
| 2026-04-21 18:11 | 33.67902 | -78.92523 | 31 ft | 10 kts | 343° |
| 2026-04-21 18:11 | 33.67963 | -78.92539 | 31 ft | 9 kts | 348° |
| 2026-04-21 18:12 | 33.68018 | -78.92552 | 32 ft | 7 kts | 349° |
| 2026-04-21 18:12 | 33.68076 | -78.92566 | 32 ft | 10 kts | 349° |
| 2026-04-21 18:12 | 33.68116 | -78.92520 | 32 ft | 9 kts | 77° |
| 2026-04-21 18:12 | 33.68121 | -78.92458 | 32 ft | 5 kts | 97° |
| 2026-04-21 18:13 | 33.68118 | -78.92423 | 32 ft | 0 kts | 96° |
| 2026-04-21 18:13 | 33.68118 | -78.92422 | 32 ft | 0 kts | 85° |
| 2026-04-21 18:14 | 33.68115 | -78.92392 | 32 ft | 2 kts | 126° |
| 2026-04-21 18:14 | 33.68105 | -78.92386 | 30 ft | 4 kts | 166° |
| 2026-04-21 18:14 | 33.68082 | -78.92381 | 32 ft | 3 kts | 167° |
| 2026-04-21 18:15 | 33.68078 | -78.92380 | 32 ft | 0 kts | 168° |